Time;durP1;ratioP1;P1;durP2;ratioP2;P2;SDS_P1;SDS_P2;PMS_P1;PMS_P2;Temp;Humidity;BMP_temperature;BMP_pressure;BME280_temperature;BME280_humidity;BME280_pressure;Samples;Min_cycle;Max_cycle;Signal;HPM_P1;HPM_P2
2023/09/13 00:02:14;;;;;;;11.30;4.83;;;;;;;24.80;68.66;100098.16;5035121;28;20200;-77
2023/09/13 00:04:39;;;;;;;9.30;4.97;;;;;;;24.78;68.36;100092.00;5051379;28;20426;-79
2023/09/13 00:07:05;;;;;;;10.10;5.30;;;;;;;24.78;68.88;100092.81;5045138;28;20227;-79
2023/09/13 00:09:30;;;;;;;6.70;4.20;;;;;;;24.81;69.00;100097.75;5066966;28;20210;-77
2023/09/13 00:11:56;;;;;;;10.50;4.60;;;;;;;24.82;69.61;100099.38;5067281;28;20231;-77
2023/09/13 00:14:21;;;;;;;5.80;4.30;;;;;;;24.83;69.39;100098.13;5025330;28;20194;-79
2023/09/13 00:16:46;;;;;;;6.03;4.10;;;;;;;24.84;69.72;100102.63;5066873;28;20557;-79
2023/09/13 00:19:12;;;;;;;6.20;3.90;;;;;;;24.83;69.27;100103.88;5066231;28;20611;-79
2023/09/13 00:21:40;;;;;;;9.33;4.60;;;;;;;24.84;69.38;100108.41;5066107;28;20159;-78
2023/09/13 00:24:09;;;;;;;6.73;4.20;;;;;;;24.85;69.62;100109.25;5027067;28;20184;-76
2023/09/13 00:26:34;;;;;;;7.83;4.80;;;;;;;24.84;69.91;100108.41;5041189;28;20522;-79
2023/09/13 00:29:00;;;;;;;6.70;4.47;;;;;;;24.84;69.96;100104.72;5054536;28;20956;-78
2023/09/13 00:31:25;;;;;;;8.90;4.57;;;;;;;24.84;69.78;100113.38;5049115;28;20634;-78
2023/09/13 00:33:51;;;;;;;6.30;4.20;;;;;;;24.84;70.25;100116.28;5031190;28;20233;-77
2023/09/13 00:36:16;;;;;;;6.20;3.87;;;;;;;24.83;70.34;100109.66;5028894;28;20180;-76
2023/09/13 00:38:42;;;;;;;5.83;4.57;;;;;;;24.83;69.71;100108.88;5046572;28;20544;-79
2023/09/13 00:41:07;;;;;;;7.07;4.93;;;;;;;24.83;69.61;100105.97;5031733;28;20182;-78
2023/09/13 00:43:33;;;;;;;7.60;4.03;;;;;;;24.83;69.32;100103.88;5033144;28;20186;-79
2023/09/13 00:45:58;;;;;;;5.67;3.63;;;;;;;24.82;69.79;100108.03;5029910;28;20172;-79
2023/09/13 00:48:23;;;;;;;8.70;4.40;;;;;;;24.83;69.37;100115.44;5020890;28;20344;-79
2023/09/13 00:50:49;;;;;;;5.67;4.40;;;;;;;24.83;69.78;100112.56;5044138;28;20528;-79
2023/09/13 00:53:14;;;;;;;5.77;4.27;;;;;;;24.83;69.70;100115.44;5047708;28;20198;-79
2023/09/13 00:55:40;;;;;;;6.53;4.10;;;;;;;24.83;69.56;100112.56;5062465;28;20801;-78
2023/09/13 00:58:05;;;;;;;7.10;3.33;;;;;;;24.82;69.79;100125.34;5050561;28;20187;-79
2023/09/13 01:00:37;;;;;;;6.97;4.70;;;;;;;24.82;69.67;100122.47;5050769;28;20201;-79
2023/09/13 01:03:04;;;;;;;6.73;4.17;;;;;;;24.82;69.85;100133.19;5065841;28;20187;-79
2023/09/13 01:05:29;;;;;;;6.30;3.83;;;;;;;24.81;69.63;100128.66;5054003;28;20445;-79
2023/09/13 01:07:55;;;;;;;5.80;3.53;;;;;;;24.81;69.96;100131.56;5064346;28;20464;-78
2023/09/13 01:10:20;;;;;;;7.03;4.17;;;;;;;24.81;69.75;100138.16;5056903;28;20207;-79
2023/09/13 01:12:46;;;;;;;6.57;4.20;;;;;;;24.80;70.02;100129.94;5033503;28;20627;-79
2023/09/13 01:15:12;;;;;;;7.60;3.80;;;;;;;24.80;69.47;100142.31;5033352;28;20183;-79
2023/09/13 01:18:01;;;;;;;5.93;4.20;;;;;;;24.80;69.50;100141.47;5028889;28;20238;-78
2023/09/13 01:20:48;;;;;;;5.40;4.03;;;;;;;24.80;69.45;100153.84;5064379;28;20441;-78
2023/09/13 01:23:25;;;;;;;7.00;4.13;;;;;;;24.80;69.51;100145.19;5080043;28;20527;-79
2023/09/13 01:26:26;;;;;;;4.63;3.30;;;;;;;24.80;69.39;100145.19;5085881;28;20450;-79
2023/09/13 01:28:53;;;;;;;7.10;4.50;;;;;;;24.80;69.49;100121.25;5033824;28;20465;-78
2023/09/13 01:31:20;;;;;;;7.10;4.00;;;;;;;24.80;69.68;100118.38;5048565;28;20916;-79
2023/09/13 01:33:46;;;;;;;5.97;3.93;;;;;;;24.79;69.53;100108.06;5054196;28;20444;-78
2023/09/13 01:36:12;;;;;;;5.50;4.00;;;;;;;24.80;69.76;100121.25;5051738;28;20505;-78
2023/09/13 01:38:37;;;;;;;7.03;4.57;;;;;;;24.79;69.59;100117.53;5046429;28;20227;-79
2023/09/13 01:41:10;;;;;;;5.77;3.67;;;;;;;24.80;69.55;100121.25;5064757;28;20742;-79
2023/09/13 01:43:36;;;;;;;4.90;3.70;;;;;;;24.79;69.44;100111.75;5046622;28;20173;-77
2023/09/13 01:46:01;;;;;;;5.47;3.50;;;;;;;24.79;69.52;100110.97;5047902;28;20417;-79
2023/09/13 01:48:27;;;;;;;5.00;3.50;;;;;;;24.80;69.26;100112.59;5052776;28;20221;-79
2023/09/13 01:50:53;;;;;;;4.80;3.17;;;;;;;24.80;69.42;100112.59;5068711;28;20530;-79
2023/09/13 01:53:18;;;;;;;4.70;3.70;;;;;;;24.79;69.12;100108.88;5049084;28;20975;-79
2023/09/13 01:55:43;;;;;;;4.80;4.00;;;;;;;24.79;69.43;100117.53;5065605;28;20554;-79
2023/09/13 01:58:09;;;;;;;5.50;4.17;;;;;;;24.79;69.11;100123.31;5045529;28;20592;-78
2023/09/13 02:00:34;;;;;;;5.73;3.30;;;;;;;24.79;69.25;100128.28;5043090;28;20190;-79
2023/09/13 02:03:00;;;;;;;5.70;3.73;;;;;;;24.79;69.47;100137.75;5048637;28;20233;-79
2023/09/13 02:05:25;;;;;;;5.03;3.87;;;;;;;24.77;69.26;100137.38;5047039;28;20178;-78
2023/09/13 02:07:51;;;;;;;5.70;4.07;;;;;;;24.77;69.27;100143.16;5063262;28;20204;-79
2023/09/13 02:10:16;;;;;;;4.27;3.30;;;;;;;24.78;69.52;100155.53;5053300;28;20210;-78
2023/09/13 02:12:41;;;;;;;4.50;3.03;;;;;;;24.78;69.22;100146.88;5026314;28;20226;-79
2023/09/13 02:15:07;;;;;;;5.93;4.00;;;;;;;24.77;69.23;100151.81;5031144;28;20180;-77
2023/09/13 02:17:33;;;;;;;7.03;3.10;;;;;;;24.77;69.74;100154.69;5045196;28;20241;-81
2023/09/13 02:19:58;;;;;;;3.90;3.30;;;;;;;24.77;69.50;100154.69;5063697;28;20429;-79
2023/09/13 02:22:24;;;;;;;5.80;3.93;;;;;;;24.77;69.15;100157.59;5080896;28;20167;-79
2023/09/13 02:24:49;;;;;;;4.50;3.70;;;;;;;24.77;69.86;100169.13;5047480;28;20175;-78
2023/09/13 02:27:15;;;;;;;6.40;3.87;;;;;;;24.77;69.21;100169.13;5048930;28;20193;-79
2023/09/13 02:29:40;;;;;;;4.67;3.40;;;;;;;24.77;69.27;100159.66;5022683;28;20199;-78
2023/09/13 02:32:05;;;;;;;4.90;3.30;;;;;;;24.78;69.44;100167.09;5048150;28;20162;-79
2023/09/13 02:34:31;;;;;;;5.17;3.83;;;;;;;24.77;68.96;100174.91;5049848;28;20183;-79
2023/09/13 02:36:58;;;;;;;4.87;3.50;;;;;;;24.76;69.37;100164.63;5047911;28;20178;-79
2023/09/13 02:39:37;;;;;;;5.23;3.67;;;;;;;24.77;69.10;100177.81;5030736;28;20183;-79
2023/09/13 02:42:03;;;;;;;4.80;3.37;;;;;;;24.76;69.20;100178.22;5048572;28;20570;-76
2023/09/13 02:44:30;;;;;;;6.13;3.93;;;;;;;24.76;69.36;100179.06;5058437;28;20564;-80
2023/09/13 02:46:55;;;;;;;4.90;3.40;;;;;;;24.76;69.56;100176.16;5083509;28;20412;-79
2023/09/13 02:49:21;;;;;;;4.50;3.53;;;;;;;24.76;69.13;100176.16;5041384;28;20508;-79
2023/09/13 02:51:47;;;;;;;4.70;4.00;;;;;;;24.75;68.99;100174.53;5048807;28;20172;-78
2023/09/13 02:54:13;;;;;;;5.80;3.60;;;;;;;24.76;69.55;100158.84;5058115;28;20194;-78
2023/09/13 02:56:39;;;;;;;4.43;3.50;;;;;;;24.76;69.24;100146.47;5048957;28;20417;-79
2023/09/13 02:59:04;;;;;;;4.30;3.23;;;;;;;24.74;69.42;100149.78;5031606;28;20433;-79
2023/09/13 03:01:30;;;;;;;4.67;3.50;;;;;;;24.74;69.04;100155.53;5067169;28;20192;-79
2023/09/13 03:03:55;;;;;;;3.90;3.23;;;;;;;24.75;69.42;100157.22;5049689;28;20198;-79
2023/09/13 03:06:20;;;;;;;4.00;2.70;;;;;;;24.74;69.59;100169.97;5048648;28;20178;-77
2023/09/13 03:08:46;;;;;;;5.53;3.60;;;;;;;24.75;69.02;100173.69;5047474;28;20206;-79
2023/09/13 03:11:16;;;;;;;4.40;3.50;;;;;;;24.75;69.25;100167.94;5043058;28;20243;-77
2023/09/13 03:13:41;;;;;;;4.47;3.33;;;;;;;24.73;69.50;100176.22;5060172;28;20970;-79
2023/09/13 03:16:17;;;;;;;4.20;3.67;;;;;;;24.75;69.61;100176.59;5049657;28;20551;-76
2023/09/13 03:18:43;;;;;;;5.00;3.30;;;;;;;24.73;69.61;100171.22;5031137;28;20168;-78
2023/09/13 03:21:09;;;;;;;4.30;3.47;;;;;;;24.73;69.18;100168.34;5037695;28;20435;-79
2023/09/13 03:23:42;;;;;;;5.10;3.50;;;;;;;24.73;69.68;100156.00;5066292;28;20424;-79
2023/09/13 03:26:23;;;;;;;4.70;3.43;;;;;;;24.73;69.22;100144.44;5049175;28;20784;-77
2023/09/13 03:28:53;;;;;;;4.93;3.10;;;;;;;24.74;68.92;100138.22;5065514;28;20461;-79
2023/09/13 03:31:20;;;;;;;4.43;3.30;;;;;;;24.74;69.20;100138.22;5049921;28;20466;-78
2023/09/13 03:33:46;;;;;;;4.87;3.50;;;;;;;24.73;69.17;100135.78;5033998;28;20473;-79
2023/09/13 03:36:12;;;;;;;4.37;3.60;;;;;;;24.74;69.54;100144.00;5056167;28;20861;-78
2023/09/13 03:38:39;;;;;;;4.67;3.23;;;;;;;24.74;69.09;100132.44;5031316;28;20419;-79
2023/09/13 03:41:09;;;;;;;5.10;3.60;;;;;;;24.75;69.24;100124.59;5031532;28;20194;-80
2023/09/13 03:43:34;;;;;;;4.67;3.50;;;;;;;24.74;69.12;100120.88;5053607;28;20429;-79
2023/09/13 03:46:00;;;;;;;4.50;3.60;;;;;;;24.74;68.98;100126.66;5067995;28;20505;-75
2023/09/13 03:48:25;;;;;;;5.17;3.60;;;;;;;24.73;69.73;100125.03;5061537;28;20207;-79
2023/09/13 03:50:51;;;;;;;4.07;3.30;;;;;;;24.73;69.39;100130.81;5030974;28;20233;-79
2023/09/13 03:53:16;;;;;;;4.43;3.33;;;;;;;24.72;69.33;100120.50;5049033;28;20183;-79
2023/09/13 03:55:42;;;;;;;5.20;3.30;;;;;;;24.73;69.70;100125.03;5036174;28;20223;-79
2023/09/13 03:58:08;;;;;;;5.30;4.00;;;;;;;24.74;69.79;100137.41;5035905;28;20650;-78
2023/09/13 04:00:36;;;;;;;5.20;3.50;;;;;;;24.73;69.57;100145.25;5032695;28;20198;-79
2023/09/13 04:03:02;;;;;;;4.00;3.50;;;;;;;24.73;69.71;100141.56;5041685;28;20217;-75
2023/09/13 04:05:28;;;;;;;5.50;3.90;;;;;;;24.74;69.77;100148.97;5031872;28;20450;-77
2023/09/13 04:07:55;;;;;;;4.87;3.40;;;;;;;24.73;69.79;100153.91;5039934;28;20457;-79
2023/09/13 04:10:20;;;;;;;5.00;3.43;;;;;;;24.73;69.78;100158.88;5055246;28;20964;-78
2023/09/13 04:12:45;;;;;;;4.90;3.80;;;;;;;24.72;69.52;100157.22;5065253;28;20230;-79
2023/09/13 04:15:11;;;;;;;6.80;3.63;;;;;;;24.72;69.97;100157.22;5034787;28;20248;-79
2023/09/13 04:17:36;;;;;;;4.50;2.83;;;;;;;24.71;70.03;100159.31;5044332;28;20178;-79
2023/09/13 04:20:02;;;;;;;4.13;3.30;;;;;;;24.74;69.85;100166.28;5068363;28;20190;-75
2023/09/13 04:22:28;;;;;;;5.43;3.53;;;;;;;24.73;69.48;100159.69;5033568;28;20682;-78
2023/09/13 04:24:53;;;;;;;3.70;3.10;;;;;;;24.72;69.58;100157.22;5033371;28;20425;-78
2023/09/13 04:27:22;;;;;;;4.30;3.50;;;;;;;24.71;69.78;100162.19;5065940;28;20680;-77
2023/09/13 04:29:48;;;;;;;5.23;3.33;;;;;;;24.71;69.88;100156.41;5051198;28;20209;-78
2023/09/13 04:32:13;;;;;;;4.03;3.30;;;;;;;24.72;69.97;100160.09;5068191;28;20398;-78
2023/09/13 04:34:39;;;;;;;4.30;3.60;;;;;;;24.72;69.53;100169.59;5061126;28;20186;-77
2023/09/13 04:37:05;;;;;;;5.47;3.77;;;;;;;24.73;69.54;100170.44;5070071;28;20159;-77
2023/09/13 04:39:31;;;;;;;5.13;3.63;;;;;;;24.72;69.77;100174.53;5054939;28;20198;-78
2023/09/13 04:41:59;;;;;;;4.60;3.80;;;;;;;24.71;69.66;100185.28;5061426;28;20194;-78
2023/09/13 04:44:25;;;;;;;4.43;3.30;;;;;;;24.70;69.49;100183.66;5068001;28;20434;-77
2023/09/13 04:46:56;;;;;;;5.57;3.97;;;;;;;24.71;69.72;100182.41;5049393;28;20452;-78
2023/09/13 04:49:21;;;;;;;4.30;3.30;;;;;;;24.71;69.89;100172.91;5070216;28;20473;-77
2023/09/13 04:51:47;;;;;;;4.90;3.47;;;;;;;24.71;69.58;100176.63;5067331;28;20516;-78
2023/09/13 04:54:12;;;;;;;5.37;3.60;;;;;;;24.70;69.90;100175.00;5072547;28;20283;-78
2023/09/13 04:56:38;;;;;;;4.20;3.20;;;;;;;24.71;70.07;100175.78;5062348;28;20206;-78
2023/09/13 04:59:04;;;;;;;6.03;3.30;;;;;;;24.71;69.93;100172.91;5065113;28;20512;-76
2023/09/13 05:01:30;;;;;;;4.50;3.67;;;;;;;24.70;69.96;100172.09;5051988;28;21004;-78
2023/09/13 05:03:56;;;;;;;4.33;3.37;;;;;;;24.71;70.12;100178.69;5064555;28;20433;-76
2023/09/13 05:06:22;;;;;;;7.40;3.70;;;;;;;24.71;70.14;100178.69;5016060;28;20183;-78
2023/09/13 05:08:49;;;;;;;5.17;3.47;;;;;;;24.71;70.07;100193.94;5028165;28;20524;-78
2023/09/13 05:11:14;;;;;;;4.30;3.60;;;;;;;24.70;70.14;100195.22;5063062;28;20237;-78
2023/09/13 05:13:40;;;;;;;5.50;3.50;;;;;;;24.70;70.20;100198.09;5050526;28;20448;-78
2023/09/13 05:16:05;;;;;;;4.80;3.90;;;;;;;24.70;70.16;100203.03;5059526;28;20255;-77
2023/09/13 05:18:31;;;;;;;6.43;3.80;;;;;;;24.70;70.46;100203.88;5034838;28;20174;-77
2023/09/13 05:20:56;;;;;;;6.03;3.63;;;;;;;24.69;70.49;100210.88;5061481;28;20184;-77
2023/09/13 05:23:21;;;;;;;5.23;3.80;;;;;;;24.69;70.68;100210.88;5027366;28;20183;-77
2023/09/13 05:25:48;;;;;;;4.90;3.80;;;;;;;24.70;70.45;100218.31;5051001;28;20535;-76
2023/09/13 05:28:17;;;;;;;4.30;3.50;;;;;;;24.69;70.57;100216.63;5063938;28;20235;-78
2023/09/13 05:30:46;;;;;;;4.87;3.63;;;;;;;24.69;70.63;100219.53;5048556;28;20962;-78
2023/09/13 05:33:11;;;;;;;4.83;3.80;;;;;;;24.69;70.53;100222.41;5028763;28;21172;-78
2023/09/13 05:35:37;;;;;;;5.13;3.60;;;;;;;24.69;70.67;100230.28;5050498;28;20526;-75
2023/09/13 05:38:02;;;;;;;4.37;3.37;;;;;;;24.69;70.19;100228.19;5062734;28;20203;-78
2023/09/13 05:40:29;;;;;;;6.77;4.07;;;;;;;24.70;70.64;100229.03;5061578;28;20288;-78
2023/09/13 05:42:55;;;;;;;4.60;3.63;;;;;;;24.69;70.68;100228.19;5056741;28;20222;-78
2023/09/13 05:45:20;;;;;;;4.73;3.70;;;;;;;24.69;70.72;100227.38;5052321;28;20425;-78
2023/09/13 05:47:48;;;;;;;5.40;3.90;;;;;;;24.70;70.73;100229.03;5050391;28;20883;-78
2023/09/13 05:50:14;;;;;;;4.53;3.27;;;;;;;24.69;70.71;100231.06;5065461;28;20160;-78
2023/09/13 05:52:40;;;;;;;4.30;3.30;;;;;;;24.70;70.91;100234.78;5033416;28;20553;-77
2023/09/13 05:55:06;;;;;;;4.70;3.77;;;;;;;24.69;70.64;100239.75;5075453;28;21225;-78
2023/09/13 05:57:32;;;;;;;3.77;3.17;;;;;;;24.70;70.36;100240.56;5031688;28;20455;-75
2023/09/13 05:59:57;;;;;;;6.67;3.70;;;;;;;24.69;70.79;100244.72;5033902;28;20418;-77
2023/09/13 06:02:23;;;;;;;4.07;3.37;;;;;;;24.69;70.64;100245.50;5046197;28;20164;-77
2023/09/13 06:04:48;;;;;;;5.73;3.67;;;;;;;24.69;70.77;100239.75;5043369;28;20234;-78
2023/09/13 06:07:13;;;;;;;4.30;3.47;;;;;;;24.69;70.82;100245.50;5033230;28;20182;-78
2023/09/13 06:09:39;;;;;;;4.37;3.33;;;;;;;24.69;70.74;100242.63;5033718;28;20213;-77
2023/09/13 06:12:04;;;;;;;6.33;3.97;;;;;;;24.69;70.66;100245.50;5047299;28;20226;-77
2023/09/13 06:14:31;;;;;;;4.63;3.77;;;;;;;24.68;71.23;100255.44;5048156;28;20198;-78
2023/09/13 06:16:57;;;;;;;6.03;3.80;;;;;;;24.70;70.97;100257.91;5047331;28;20178;-78
2023/09/13 06:19:22;;;;;;;5.00;3.47;;;;;;;24.69;70.64;100257.06;5035300;28;20440;-78
2023/09/13 06:21:48;;;;;;;7.03;3.87;;;;;;;24.69;70.89;100262.03;5027975;28;20180;-78
2023/09/13 06:24:13;;;;;;;5.23;3.50;;;;;;;24.69;71.09;100271.50;5047820;28;20201;-78
2023/09/13 06:26:39;;;;;;;4.77;3.40;;;;;;;24.68;70.63;100266.97;5068708;28;20290;-78
2023/09/13 06:29:05;;;;;;;4.70;3.60;;;;;;;24.69;70.85;100273.59;5050392;28;20205;-78
2023/09/13 06:31:31;;;;;;;4.03;3.63;;;;;;;24.68;70.80;100272.75;5035451;28;20293;-78
2023/09/13 06:33:56;;;;;;;5.60;3.90;;;;;;;24.68;71.20;100272.75;5040156;28;20425;-76
2023/09/13 06:36:22;;;;;;;5.53;3.87;;;;;;;24.68;71.13;100278.53;5021446;28;20187;-76
2023/09/13 06:38:47;;;;;;;4.83;3.57;;;;;;;24.69;71.13;100285.13;5033612;28;20230;-77
2023/09/13 06:41:13;;;;;;;5.53;4.00;;;;;;;24.67;71.30;100291.31;5050138;28;20289;-78
2023/09/13 06:43:40;;;;;;;4.97;3.67;;;;;;;24.68;70.99;100290.06;5065965;28;20542;-76
2023/09/13 06:46:06;;;;;;;5.30;3.50;;;;;;;24.67;71.63;100285.56;5047159;28;20198;-78
2023/09/13 06:48:31;;;;;;;4.93;3.73;;;;;;;24.67;71.36;100287.59;5023933;28;20824;-78
2023/09/13 06:50:57;;;;;;;5.40;3.40;;;;;;;24.68;71.43;100283.50;5045237;28;20179;-78
2023/09/13 06:53:22;;;;;;;5.70;4.03;;;;;;;24.67;71.03;100282.66;5059043;28;20184;-78
2023/09/13 06:55:47;;;;;;;5.03;3.60;;;;;;;24.68;71.15;100289.28;5062950;28;20189;-78
2023/09/13 06:58:13;;;;;;;6.43;3.87;;;;;;;24.67;71.22;100297.09;5049984;28;20192;-78
2023/09/13 07:00:40;;;;;;;4.57;4.07;;;;;;;24.67;71.08;100287.59;5050073;28;20186;-78
2023/09/13 07:03:06;;;;;;;5.50;4.10;;;;;;;24.67;70.89;100300.00;5040152;28;20187;-78
2023/09/13 07:05:31;;;;;;;5.57;4.07;;;;;;;24.67;71.07;100302.03;5043899;28;20945;-77
2023/09/13 07:07:58;;;;;;;5.43;3.93;;;;;;;24.67;71.11;100302.88;5048182;28;20461;-78
2023/09/13 07:10:42;;;;;;;6.13;4.50;;;;;;;24.66;71.20;100297.53;5030381;28;20285;-75
2023/09/13 07:13:08;;;;;;;6.63;4.23;;;;;;;24.65;71.01;100288.06;5077023;28;20446;-79
2023/09/13 07:15:34;;;;;;;6.27;4.43;;;;;;;24.61;71.47;100300.84;5053869;28;20480;-76
2023/09/13 07:17:59;;;;;;;8.17;5.00;;;;;;;24.59;71.35;100294.69;5059403;28;20195;-78
2023/09/13 07:20:25;;;;;;;6.80;4.50;;;;;;;24.60;71.86;100305.00;5048444;28;20694;-79
2023/09/13 07:22:50;;;;;;;15.50;6.70;;;;;;;24.80;73.14;100306.94;5078713;28;20197;-79
2023/09/13 07:25:16;;;;;;;15.43;8.60;;;;;;;24.97;75.00;100296.47;5039826;28;20184;-77
2023/09/13 07:27:41;;;;;;;15.13;8.93;;;;;;;25.01;76.18;100298.09;5059341;28;20267;-77
2023/09/13 07:30:09;;;;;;;12.07;8.30;;;;;;;24.96;75.56;100301.44;5055271;28;20187;-77
2023/09/13 07:32:36;;;;;;;14.47;8.63;;;;;;;24.97;76.46;100293.56;5056201;28;20649;-75
2023/09/13 07:35:03;;;;;;;13.37;8.10;;;;;;;24.94;74.26;100303.91;5062592;28;20426;-76
2023/09/13 07:37:29;;;;;;;13.20;7.53;;;;;;;24.93;74.94;100301.47;5068073;28;20780;-76
2023/09/13 07:39:55;;;;;;;11.10;6.23;;;;;;;24.90;74.83;100308.06;5056492;28;20524;-76
2023/09/13 07:42:20;;;;;;;12.13;5.70;;;;;;;24.89;74.49;100307.25;5057959;28;20468;-76
2023/09/13 07:44:45;;;;;;;9.93;5.70;;;;;;;24.85;73.67;100312.25;5053741;28;20187;-76
2023/09/13 07:47:11;;;;;;;11.90;6.40;;;;;;;24.84;73.76;100318.44;5059305;28;20202;-76
2023/09/13 07:49:37;;;;;;;9.03;6.00;;;;;;;24.84;73.51;100324.22;5048159;28;20219;-77
2023/09/13 07:52:02;;;;;;;9.90;5.83;;;;;;;24.85;73.04;100323.81;5067967;28;20184;-76
2023/09/13 07:54:29;;;;;;;10.57;6.40;;;;;;;24.83;71.85;100326.28;5082009;28;20586;-77
2023/09/13 07:56:54;;;;;;;8.70;5.57;;;;;;;24.88;73.23;100327.91;5074354;28;20433;-76
2023/09/13 07:59:20;;;;;;;11.40;8.67;;;;;;;25.05;73.35;100322.00;5043114;28;20164;-77
2023/09/13 08:01:47;;;;;;;10.13;7.20;;;;;;;25.10;73.26;100324.44;5053468;28;20188;-77
2023/09/13 08:04:12;;;;;;;13.70;7.97;;;;;;;25.05;73.78;100339.34;5057381;28;20574;-76
2023/09/13 08:06:41;;;;;;;12.60;7.03;;;;;;;24.97;73.28;100337.72;5054798;28;20522;-77
2023/09/13 08:09:07;;;;;;;9.23;6.47;;;;;;;24.99;72.81;100332.34;5043750;28;20214;-78
2023/09/13 08:11:33;;;;;;;9.30;6.60;;;;;;;24.97;72.50;100326.19;5071147;22;21172;-65
2023/09/13 08:13:58;;;;;;;10.43;6.37;;;;;;;25.02;73.16;100328.63;5050085;28;20448;-65
2023/09/13 08:16:24;;;;;;;8.20;6.60;;;;;;;25.04;73.55;100337.66;5065363;28;20179;-65
2023/09/13 08:18:49;;;;;;;7.40;6.20;;;;;;;25.03;73.93;100336.03;5047024;28;20369;-65
2023/09/13 08:21:15;;;;;;;9.50;5.90;;;;;;;25.01;74.21;100338.53;5068604;28;20190;-65
2023/09/13 08:23:40;;;;;;;8.93;5.43;;;;;;;25.03;74.06;100350.47;5084296;28;20190;-64
2023/09/13 08:26:06;;;;;;;7.90;5.80;;;;;;;25.03;73.63;100350.47;5016944;28;20175;-65
2023/09/13 08:28:31;;;;;;;8.40;5.50;;;;;;;24.98;73.42;100350.94;5040794;28;20200;-65
2023/09/13 08:30:57;;;;;;;9.23;5.60;;;;;;;24.96;73.57;100347.66;5063814;28;20183;-65
2023/09/13 08:33:22;;;;;;;8.40;5.20;;;;;;;24.93;73.76;100347.69;5056072;28;20187;-65
2023/09/13 08:35:48;;;;;;;9.20;5.40;;;;;;;24.92;73.45;100360.47;5067657;28;20188;-65
2023/09/13 08:38:13;;;;;;;10.80;5.47;;;;;;;24.86;72.65;100351.44;5058168;28;20231;-65
2023/09/13 08:40:43;;;;;;;9.70;5.90;;;;;;;24.80;72.06;100355.19;5070157;28;20186;-65
2023/09/13 08:43:12;;;;;;;7.57;5.30;;;;;;;24.75;71.57;100352.75;5034121;28;20215;-65
2023/09/13 08:45:38;;;;;;;8.63;5.20;;;;;;;24.75;71.60;100353.56;5039610;28;20489;-65
2023/09/13 08:48:04;;;;;;;8.37;5.60;;;;;;;24.75;72.40;100353.56;5070133;28;20456;-65
2023/09/13 08:50:30;;;;;;;6.80;5.20;;;;;;;24.75;73.27;100364.28;5070089;28;20445;-65
2023/09/13 08:52:59;;;;;;;10.20;5.07;;;;;;;24.73;72.78;100367.59;5050355;28;20524;-65
2023/09/13 08:55:25;;;;;;;10.10;5.03;;;;;;;24.75;72.88;100373.78;5046552;28;20444;-65
2023/09/13 08:57:50;;;;;;;7.30;5.00;;;;;;;24.78;72.19;100381.59;5031279;28;20418;-66
2023/09/13 09:00:16;;;;;;;9.30;5.07;;;;;;;24.78;72.52;100372.94;5033185;28;20187;-65
2023/09/13 09:02:42;;;;;;;7.80;5.60;;;;;;;24.80;72.10;100378.28;5052837;28;20193;-65
2023/09/13 09:05:10;;;;;;;11.50;5.77;;;;;;;24.80;72.08;100382.00;5071645;28;20297;-65
2023/09/13 09:07:35;;;;;;;8.03;5.40;;;;;;;24.81;72.10;100385.72;5071358;28;20473;-66
2023/09/13 09:10:07;;;;;;;7.70;5.20;;;;;;;24.80;71.94;100384.91;5078085;28;20482;-65
2023/09/13 09:12:33;;;;;;;6.57;5.17;;;;;;;24.82;71.59;100388.19;5074064;28;20193;-66
2023/09/13 09:14:58;;;;;;;7.17;5.00;;;;;;;24.81;72.27;100395.19;5091433;28;20481;-62
2023/09/13 09:17:25;;;;;;;9.37;5.10;;;;;;;24.81;71.91;100386.53;5072187;28;20203;-62
2023/09/13 09:19:50;;;;;;;10.37;5.23;;;;;;;24.81;72.03;100392.31;5070425;28;20185;-62
2023/09/13 09:22:16;;;;;;;6.90;5.10;;;;;;;24.81;71.97;100383.66;5083411;28;20459;-62
2023/09/13 09:24:41;;;;;;;10.27;5.33;;;;;;;24.80;71.83;100384.91;5091819;28;20264;-62
2023/09/13 09:27:07;;;;;;;10.00;5.37;;;;;;;24.81;71.82;100400.97;5110178;28;20191;-62
2023/09/13 09:29:44;;;;;;;6.47;4.50;;;;;;;24.81;71.88;100398.09;5091916;28;20559;-62
2023/09/13 09:32:12;;;;;;;6.73;4.63;;;;;;;24.80;71.86;100401.41;5105950;28;21004;-63
2023/09/13 09:34:39;;;;;;;6.20;4.80;;;;;;;24.80;71.68;100399.34;5080844;28;20413;-62
2023/09/13 09:37:08;;;;;;;5.70;4.73;;;;;;;24.79;72.08;100400.56;5054265;28;20420;-63
2023/09/13 09:39:39;;;;;;;6.20;5.00;;;;;;;24.79;71.96;100396.88;5071128;28;20423;-62
2023/09/13 09:42:04;;;;;;;6.33;4.97;;;;;;;24.78;71.98;100398.91;5102699;28;20962;-62
2023/09/13 09:44:30;;;;;;;7.53;4.63;;;;;;;24.79;71.98;100393.97;5108870;28;20476;-62
2023/09/13 09:46:56;;;;;;;6.60;4.93;;;;;;;24.79;71.56;100399.75;5108401;28;20777;-62
2023/09/13 09:49:21;;;;;;;7.30;5.40;;;;;;;24.77;72.05;100400.16;5106449;28;20200;-62
2023/09/13 09:51:47;;;;;;;5.23;4.60;;;;;;;24.77;71.49;100396.44;5088112;28;20186;-63
2023/09/13 09:54:12;;;;;;;6.67;4.67;;;;;;;24.76;72.02;100392.75;5089635;28;20177;-62
2023/09/13 09:56:38;;;;;;;6.47;4.60;;;;;;;24.76;71.97;100389.88;5079434;28;20181;-62
2023/09/13 09:59:03;;;;;;;6.20;5.13;;;;;;;24.76;72.10;100394.81;5077220;28;20622;-62
2023/09/13 10:01:28;;;;;;;6.37;5.50;;;;;;;24.76;71.59;100395.66;5054627;28;20187;-62
2023/09/13 10:03:55;;;;;;;5.17;4.27;;;;;;;24.76;71.51;100394.81;5072432;28;20243;-62
2023/09/13 10:06:20;;;;;;;7.30;5.10;;;;;;;24.76;71.86;100398.53;5054311;28;20601;-62
2023/09/13 10:08:47;;;;;;;6.30;4.73;;;;;;;24.76;71.40;100401.41;5092245;28;20467;-62
2023/09/13 10:11:21;;;;;;;7.10;4.67;;;;;;;24.75;71.52;100394.00;5086673;28;20240;-62
2023/09/13 10:13:47;;;;;;;6.67;4.53;;;;;;;24.76;71.77;100398.53;5055583;28;20550;-62
2023/09/13 10:16:14;;;;;;;5.40;4.30;;;;;;;24.77;71.66;100396.44;5108332;28;20427;-62
2023/09/13 10:18:49;;;;;;;6.93;5.03;;;;;;;24.76;71.48;100395.66;5090250;28;20249;-62
2023/09/13 10:21:33;;;;;;;7.33;4.97;;;;;;;24.77;71.53;100399.34;5069844;28;20417;-61
2023/09/13 10:24:08;;;;;;;6.87;4.87;;;;;;;24.77;71.27;100403.06;5081297;28;20486;-62
2023/09/13 10:26:34;;;;;;;7.30;5.17;;;;;;;24.77;71.13;100399.34;5071721;28;20420;-66
2023/09/13 10:29:24;;;;;;;6.10;4.20;;;;;;;24.76;71.39;100401.41;5080387;28;20971;-65
2023/09/13 10:31:51;;;;;;;5.67;4.40;;;;;;;24.77;71.25;100405.94;5055714;28;20979;-65
2023/09/13 10:34:26;;;;;;;9.40;5.57;;;;;;;24.76;71.04;100407.19;5054324;28;20459;-65
2023/09/13 10:37:27;;;;;;;4.93;4.37;;;;;;;24.77;71.30;100408.84;5073496;28;20419;-65
2023/09/13 10:40:10;;;;;;;6.67;4.63;;;;;;;24.76;70.98;100407.19;5094092;28;20493;-65
2023/09/13 10:42:38;;;;;;;6.27;4.00;;;;;;;24.76;71.38;100398.53;5068341;28;21056;-65
2023/09/13 10:45:04;;;;;;;5.57;4.80;;;;;;;24.77;71.33;100402.22;5052335;28;20475;-65
2023/09/13 10:47:30;;;;;;;6.63;4.10;;;;;;;24.77;71.12;100397.28;5051905;28;20430;-65
2023/09/13 10:49:55;;;;;;;6.03;4.30;;;;;;;24.78;71.38;100401.81;5072773;28;20463;-66
2023/09/13 10:52:21;;;;;;;9.13;4.70;;;;;;;24.77;71.34;100402.22;5069445;28;20174;-65
2023/09/13 10:54:46;;;;;;;5.83;4.20;;;;;;;24.76;71.02;100404.31;5070798;28;20166;-66
2023/09/13 10:57:11;;;;;;;6.10;4.43;;;;;;;24.77;71.04;100410.88;5070848;28;20181;-66
2023/09/13 10:59:37;;;;;;;6.00;4.40;;;;;;;24.77;71.25;100400.16;5072755;28;20758;-66
2023/09/13 11:02:05;;;;;;;6.63;4.93;;;;;;;24.77;71.18;100403.06;5069825;28;20170;-65
2023/09/13 11:04:31;;;;;;;6.27;4.70;;;;;;;24.77;70.93;100400.16;5071178;28;20256;-66
2023/09/13 11:06:57;;;;;;;6.83;4.43;;;;;;;24.77;71.07;100411.72;5070324;28;20852;-66
2023/09/13 11:09:27;;;;;;;5.87;4.40;;;;;;;24.76;71.31;100418.75;5103758;28;20835;-66
2023/09/13 11:11:53;;;;;;;8.30;4.90;;;;;;;24.76;71.28;100412.97;5086179;28;20456;-66
2023/09/13 11:14:25;;;;;;;6.80;4.80;;;;;;;24.76;71.29;100412.13;5078918;28;21405;-66
2023/09/13 11:16:51;;;;;;;5.80;4.23;;;;;;;24.76;71.54;100417.91;5083873;28;20625;-66
2023/09/13 11:19:16;;;;;;;5.80;4.10;;;;;;;24.77;71.53;100410.88;5092419;28;20408;-65
2023/09/13 11:21:45;;;;;;;6.60;5.43;;;;;;;24.76;71.47;100410.09;5059485;28;20179;-66
2023/09/13 11:24:11;;;;;;;6.77;4.60;;;;;;;24.76;71.00;100415.03;5088209;28;20243;-66